createdAt,value
2022-12-14T00:01:19.196Z,19.40
2022-12-14T00:03:46.568Z,21.40
2022-12-14T00:06:14.315Z,18.20
2022-12-14T00:08:42.019Z,23.40
2022-12-14T00:11:09.041Z,20.80
2022-12-14T00:13:35.835Z,21.17
2022-12-14T00:16:16.311Z,27.37
2022-12-14T00:18:44.191Z,24.20
2022-12-14T00:21:13.743Z,19.97
2022-12-14T00:23:43.508Z,17.17
2022-12-14T00:26:11.928Z,21.50
2022-12-14T00:28:38.598Z,17.47
2022-12-14T00:31:05.449Z,21.70
2022-12-14T00:33:32.748Z,20.70
2022-12-14T00:35:59.707Z,19.23
2022-12-14T00:38:26.761Z,17.37
2022-12-14T00:40:54.708Z,22.53
2022-12-14T00:43:22.128Z,18.30
2022-12-14T00:45:49.042Z,19.17
2022-12-14T00:48:15.642Z,22.70
2022-12-14T00:50:44.473Z,16.47
2022-12-14T00:53:15.629Z,22.20
2022-12-14T00:55:44.348Z,16.90
2022-12-14T00:58:17.749Z,19.93
2022-12-14T01:00:44.531Z,16.80
2022-12-14T01:03:12.047Z,18.23
2022-12-14T01:05:39.206Z,17.60
2022-12-14T01:08:06.672Z,18.77
2022-12-14T01:10:33.361Z,19.20
2022-12-14T01:12:59.806Z,16.93
2022-12-14T01:15:26.301Z,20.70
2022-12-14T01:17:52.954Z,16.93
2022-12-14T01:20:19.922Z,16.90
2022-12-14T01:22:46.515Z,15.03
2022-12-14T01:25:12.988Z,17.23
2022-12-14T01:27:39.542Z,18.83
2022-12-14T01:30:06.538Z,16.53
2022-12-14T01:32:34.826Z,18.07
2022-12-14T01:35:01.539Z,16.83
2022-12-14T01:37:28.958Z,18.67
2022-12-14T01:39:55.495Z,15.30
2022-12-14T01:42:22.223Z,16.30
2022-12-14T01:44:54.206Z,18.83
2022-12-14T01:47:28.967Z,15.53
2022-12-14T01:50:00.124Z,14.60
2022-12-14T01:52:28.870Z,15.97
2022-12-14T01:55:12.006Z,17.70
2022-12-14T01:57:49.127Z,18.33
2022-12-14T02:00:16.895Z,15.50
2022-12-14T02:02:52.620Z,17.97
2022-12-14T02:05:21.182Z,19.23
2022-12-14T02:07:49.201Z,13.33
2022-12-14T02:10:15.986Z,16.77
2022-12-14T02:12:49.264Z,15.03
2022-12-14T02:15:16.741Z,16.07
2022-12-14T02:17:44.512Z,16.53
2022-12-14T02:20:12.199Z,13.03
2022-12-14T02:22:57.485Z,14.80
2022-12-14T02:25:44.830Z,14.50
2022-12-14T02:28:43.289Z,14.40
2022-12-14T02:31:22.105Z,14.50
2022-12-14T02:33:54.610Z,13.60
2022-12-14T02:36:28.616Z,13.20
2022-12-14T02:39:04.272Z,14.90
2022-12-14T02:41:38.424Z,14.03
2022-12-14T02:44:16.320Z,11.50
2022-12-14T02:46:58.173Z,13.70
2022-12-14T02:49:49.441Z,14.30
2022-12-14T02:52:22.346Z,14.73
2022-12-14T02:54:48.824Z,14.33
2022-12-14T02:57:23.814Z,12.50
2022-12-14T02:59:52.581Z,14.57
2022-12-14T03:02:19.207Z,12.97
2022-12-14T03:04:49.780Z,15.23
2022-12-14T03:07:37.673Z,12.10
2022-12-14T03:10:30.934Z,13.43
2022-12-14T03:13:03.387Z,16.17
2022-12-14T03:15:29.940Z,15.03
2022-12-14T03:17:58.321Z,12.50
2022-12-14T03:20:36.053Z,13.77
2022-12-14T03:23:16.754Z,12.13
2022-12-14T03:25:54.087Z,17.23
2022-12-14T03:28:24.553Z,14.07
2022-12-14T03:31:00.625Z,15.07
2022-12-14T03:33:29.601Z,13.10
2022-12-14T03:36:14.915Z,12.07
2022-12-14T03:38:44.764Z,12.63
2022-12-14T03:41:21.491Z,14.13
2022-12-14T03:44:19.245Z,15.10
2022-12-14T03:47:23.468Z,17.23
2022-12-14T03:50:19.548Z,14.47
2022-12-14T03:53:03.454Z,14.03
2022-12-14T03:55:36.700Z,12.53
2022-12-14T03:58:24.570Z,17.17
2022-12-14T04:01:08.979Z,14.97
2022-12-14T04:03:46.376Z,12.93
2022-12-14T04:06:26.369Z,13.50
2022-12-14T04:09:12.401Z,16.23
2022-12-14T04:12:04.204Z,12.63
2022-12-14T04:14:53.497Z,16.70
2022-12-14T04:17:43.492Z,15.17
2022-12-14T04:20:16.874Z,12.20
2022-12-14T04:22:49.954Z,14.40
2022-12-14T04:25:40.124Z,13.97
2022-12-14T04:28:44.117Z,12.80
2022-12-14T04:31:14.899Z,11.63
2022-12-14T04:33:47.622Z,12.63
2022-12-14T04:36:24.532Z,11.20
2022-12-14T04:38:55.219Z,14.70
2022-12-14T04:41:25.198Z,11.43
2022-12-14T04:43:54.211Z,12.17
2022-12-14T04:46:25.438Z,15.33
2022-12-14T04:49:12.853Z,13.23
2022-12-14T04:52:05.996Z,12.60
2022-12-14T04:54:48.579Z,15.37
2022-12-14T04:57:24.314Z,11.43
2022-12-14T04:59:51.147Z,14.47
2022-12-14T05:02:39.495Z,15.10
2022-12-14T05:05:19.490Z,15.33
2022-12-14T05:08:07.314Z,13.90
2022-12-14T05:10:39.774Z,11.70
2022-12-14T05:13:22.400Z,15.77
2022-12-14T05:15:50.593Z,12.97
2022-12-14T05:18:17.464Z,18.90
2022-12-14T05:20:46.483Z,18.80
2022-12-14T05:23:13.104Z,15.27
2022-12-14T05:25:39.632Z,11.53
2022-12-14T05:28:06.578Z,15.10
2022-12-14T05:30:34.005Z,16.30
2022-12-14T05:33:00.554Z,15.00
2022-12-14T05:35:27.142Z,13.20
2022-12-14T05:37:53.657Z,15.67
2022-12-14T05:40:20.119Z,15.03
2022-12-14T05:42:49.874Z,13.07
2022-12-14T05:45:20.448Z,13.77
2022-12-14T05:47:46.942Z,16.53
2022-12-14T05:50:13.428Z,15.33
2022-12-14T05:52:39.876Z,16.20
2022-12-14T05:55:07.040Z,15.53
2022-12-14T05:57:33.502Z,10.17
2022-12-14T06:00:00.257Z,16.73
2022-12-14T06:02:27.177Z,16.57
2022-12-14T06:04:53.688Z,12.17
2022-12-14T06:07:25.929Z,13.37
2022-12-14T06:09:54.093Z,13.13
2022-12-14T06:12:20.629Z,15.30
2022-12-14T06:14:47.113Z,20.17
2022-12-14T06:17:13.726Z,15.77
2022-12-14T06:19:40.154Z,10.77
2022-12-14T06:22:06.711Z,15.50
2022-12-14T06:24:33.665Z,10.33
2022-12-14T06:27:00.236Z,15.03
2022-12-14T06:29:28.792Z,11.20
2022-12-14T06:31:55.321Z,11.77
2022-12-14T06:34:26.506Z,15.93
2022-12-14T06:36:55.216Z,13.27
2022-12-14T06:39:21.742Z,12.47
2022-12-14T06:41:51.776Z,15.90
2022-12-14T06:44:18.519Z,16.87
2022-12-14T06:46:45.122Z,21.53
2022-12-14T06:49:14.696Z,19.10
2022-12-14T06:51:41.684Z,16.43
2022-12-14T06:54:10.819Z,13.63
2022-12-14T06:56:37.918Z,14.90
2022-12-14T06:59:05.365Z,13.40
2022-12-14T07:01:32.264Z,16.13
2022-12-14T07:03:59.553Z,12.17
2022-12-14T07:06:27.871Z,19.73
2022-12-14T07:08:58.070Z,16.43
2022-12-14T07:11:25.953Z,17.77
2022-12-14T07:13:53.195Z,15.17
2022-12-14T07:16:23.310Z,12.87
2022-12-14T07:18:50.623Z,16.10
2022-12-14T07:21:18.425Z,15.93
2022-12-14T07:23:45.930Z,17.07
2022-12-14T07:26:13.656Z,14.20
2022-12-14T07:28:41.017Z,15.47
2022-12-14T07:31:11.819Z,17.23
2022-12-14T07:33:38.655Z,13.37
2022-12-14T07:36:10.722Z,13.17
2022-12-14T07:38:38.685Z,16.57
2022-12-14T07:41:11.014Z,16.10
2022-12-14T07:43:39.145Z,15.13
2022-12-14T07:46:09.808Z,14.83
2022-12-14T07:48:36.598Z,12.90
2022-12-14T07:51:08.727Z,16.33
2022-12-14T07:53:37.048Z,14.03
2022-12-14T07:56:08.696Z,18.60
2022-12-14T07:58:36.239Z,18.00
2022-12-14T08:01:11.335Z,18.07
2022-12-14T08:03:39.234Z,14.40
2022-12-14T08:06:07.073Z,14.63
2022-12-14T08:08:33.730Z,16.47
2022-12-14T08:11:01.146Z,17.13
2022-12-14T08:13:28.343Z,16.53
2022-12-14T08:15:55.081Z,15.23
2022-12-14T08:18:21.715Z,17.50
2022-12-14T08:20:53.386Z,18.53
2022-12-14T08:23:20.467Z,18.60
2022-12-14T08:25:54.208Z,17.33
2022-12-14T08:28:21.221Z,18.87
2022-12-14T08:30:47.781Z,17.87
2022-12-14T08:33:14.343Z,17.67
2022-12-14T08:35:41.045Z,19.93
2022-12-14T08:38:08.245Z,16.53
2022-12-14T08:40:35.783Z,18.00
2022-12-14T08:43:02.348Z,18.57
2022-12-14T08:45:28.849Z,17.80
2022-12-14T08:47:58.884Z,20.23
2022-12-14T08:50:26.039Z,14.53
2022-12-14T08:52:53.191Z,22.70
2022-12-14T08:55:25.709Z,14.97
2022-12-14T08:57:54.970Z,21.73
2022-12-14T09:00:21.490Z,17.03
2022-12-14T09:02:51.496Z,17.13
2022-12-14T09:05:18.438Z,13.10
2022-12-14T09:07:45.200Z,18.73
2022-12-14T09:10:12.597Z,16.73
2022-12-14T09:12:39.443Z,17.90
2022-12-14T09:15:06.790Z,17.53
2022-12-14T09:17:34.402Z,20.17
2022-12-14T09:20:01.987Z,17.83
2022-12-14T09:22:28.689Z,17.00
2022-12-14T09:24:55.204Z,21.37
2022-12-14T09:27:22.519Z,20.87
2022-12-14T09:29:50.011Z,21.53
2022-12-14T09:32:16.815Z,16.30
2022-12-14T09:34:43.279Z,18.37
2022-12-14T09:37:09.863Z,16.13
2022-12-14T09:39:37.226Z,13.37
2022-12-14T09:42:33.081Z,14.10
2022-12-14T09:45:05.626Z,16.40
2022-12-14T09:47:50.257Z,16.63
2022-12-14T09:50:19.525Z,15.73
2022-12-14T09:52:48.987Z,15.97
2022-12-14T09:55:20.231Z,15.80
2022-12-14T09:57:48.705Z,18.40
2022-12-14T10:00:20.039Z,13.60
2022-12-14T10:03:06.913Z,15.07
2022-12-14T10:05:53.031Z,13.53
2022-12-14T10:08:37.760Z,14.80
2022-12-14T10:11:14.337Z,15.00
2022-12-14T10:14:19.969Z,13.47
2022-12-14T10:17:01.688Z,18.20
2022-12-14T10:19:46.527Z,14.27
2022-12-14T10:22:16.712Z,9.90
2022-12-14T10:24:48.836Z,14.87
2022-12-14T10:27:24.335Z,20.73
2022-12-14T10:29:57.199Z,17.40
2022-12-14T10:32:45.742Z,15.27
2022-12-14T10:35:16.944Z,14.40
2022-12-14T10:37:45.758Z,17.40
2022-12-14T10:40:32.558Z,14.87
2022-12-14T10:43:05.414Z,26.57
2022-12-14T10:45:50.262Z,14.40
2022-12-14T10:48:29.330Z,13.90
2022-12-14T10:51:02.251Z,13.43
2022-12-14T10:53:41.167Z,14.93
2022-12-14T10:56:14.661Z,14.97
2022-12-14T10:58:41.244Z,17.90
2022-12-14T11:01:13.534Z,15.17
2022-12-14T11:03:42.288Z,16.40
2022-12-14T11:06:17.549Z,16.03
2022-12-14T11:08:48.107Z,12.53
2022-12-14T11:11:21.295Z,16.33
2022-12-14T11:14:07.986Z,16.53
2022-12-14T11:16:39.900Z,20.60
2022-12-14T11:19:16.019Z,16.70
2022-12-14T11:21:42.893Z,16.53
2022-12-14T11:24:24.162Z,14.80
2022-12-14T11:26:52.887Z,17.10
2022-12-14T11:29:23.960Z,19.47
2022-12-14T11:31:53.830Z,17.07
2022-12-14T11:34:38.429Z,18.60
2022-12-14T11:37:21.491Z,19.43
2022-12-14T11:39:53.675Z,18.50
2022-12-14T11:42:20.867Z,14.17
2022-12-14T11:44:49.394Z,21.30
2022-12-14T11:47:18.836Z,16.40
2022-12-14T11:49:48.088Z,16.70
2022-12-14T11:52:18.300Z,18.80
2022-12-14T11:54:49.564Z,15.33
2022-12-14T11:57:31.085Z,16.97
2022-12-14T12:00:07.275Z,20.03
2022-12-14T12:02:33.823Z,19.67
2022-12-14T12:05:05.939Z,21.30
2022-12-14T12:07:34.846Z,15.47
2022-12-14T12:10:13.701Z,13.73
2022-12-14T12:12:55.246Z,18.90
2022-12-14T12:15:43.308Z,19.73
2022-12-14T12:18:27.667Z,15.43
2022-12-14T12:20:57.386Z,19.30
2022-12-14T12:23:30.734Z,19.03
2022-12-14T12:25:58.959Z,16.73
2022-12-14T12:28:32.129Z,12.93
2022-12-14T12:31:10.384Z,16.90
2022-12-14T12:33:46.848Z,14.97
2022-12-14T12:36:20.457Z,16.93
2022-12-14T12:39:12.531Z,17.90
2022-12-14T12:42:05.523Z,18.27
2022-12-14T12:44:50.701Z,20.83
2022-12-14T12:47:27.941Z,19.07
2022-12-14T12:50:09.482Z,22.43
2022-12-14T12:53:03.255Z,18.63
2022-12-14T12:55:34.459Z,26.03
2022-12-14T12:58:02.981Z,21.70
2022-12-14T13:00:30.502Z,18.73
2022-12-14T13:03:45.088Z,16.20
2022-12-14T13:06:25.294Z,18.40
2022-12-14T13:08:58.245Z,24.47
2022-12-14T13:11:31.740Z,20.07
2022-12-14T13:14:03.696Z,20.60
2022-12-14T13:16:34.001Z,23.53
2022-12-14T13:19:25.437Z,28.60
2022-12-14T13:21:55.158Z,18.83
2022-12-14T13:24:23.888Z,19.70
2022-12-14T13:26:58.247Z,17.10
2022-12-14T13:29:40.346Z,20.10
2022-12-14T13:32:33.789Z,17.50
2022-12-14T13:35:41.075Z,18.70
2022-12-14T13:38:17.239Z,17.30
2022-12-14T13:40:46.981Z,16.60
2022-12-14T13:43:20.952Z,21.63
2022-12-14T13:45:50.035Z,18.00
2022-12-14T13:48:25.312Z,17.07
2022-12-14T13:51:03.637Z,22.70
2022-12-14T13:53:43.613Z,22.93
2022-12-14T13:56:27.825Z,20.73
2022-12-14T13:59:00.434Z,18.77
2022-12-14T14:01:45.606Z,17.73
2022-12-14T14:04:15.117Z,17.77
2022-12-14T14:06:54.941Z,20.50
2022-12-14T14:09:30.512Z,18.03
2022-12-14T14:12:21.859Z,19.77
2022-12-14T14:14:58.581Z,21.17
2022-12-14T14:17:28.141Z,22.83
2022-12-14T14:19:56.483Z,16.27
2022-12-14T14:22:29.801Z,15.60
2022-12-14T14:25:09.388Z,17.97
2022-12-14T14:27:38.636Z,22.47
2022-12-14T14:30:28.213Z,24.00
2022-12-14T14:33:07.635Z,22.73
2022-12-14T14:35:40.165Z,21.80
2022-12-14T14:38:31.306Z,21.87
2022-12-14T14:41:17.375Z,22.70
2022-12-14T14:43:51.519Z,20.20
2022-12-14T14:46:22.909Z,22.00
2022-12-14T14:48:54.066Z,22.20
2022-12-14T14:51:25.345Z,21.23
2022-12-14T14:54:46.172Z,23.17
2022-12-14T14:57:53.844Z,21.90
2022-12-14T15:00:20.366Z,24.10
2022-12-14T15:02:47.329Z,24.80
2022-12-14T15:08:34.742Z,21.17
2022-12-14T15:11:11.375Z,20.67
2022-12-14T15:13:46.604Z,24.03
2022-12-14T15:16:25.081Z,20.63
2022-12-14T15:18:51.946Z,23.67
2022-12-14T15:21:19.238Z,26.80
2022-12-14T15:23:51.587Z,21.63
2022-12-14T15:26:28.956Z,19.40
2022-12-14T15:28:58.185Z,26.20
2022-12-14T15:31:33.152Z,25.70
2022-12-14T15:34:00.332Z,25.07
2022-12-14T15:36:30.202Z,23.93
2022-12-14T15:38:57.720Z,30.40
2022-12-14T15:41:27.518Z,25.43
2022-12-14T15:43:59.742Z,25.27
2022-12-14T15:46:33.773Z,20.73
2022-12-14T15:49:03.618Z,21.17
2022-12-14T15:51:37.388Z,28.10
2022-12-14T15:54:06.159Z,27.00
2022-12-14T15:56:44.667Z,28.93
2022-12-14T15:59:17.708Z,26.70
2022-12-14T16:01:54.383Z,26.53
2022-12-14T16:04:23.428Z,20.90
2022-12-14T16:07:04.487Z,29.77
2022-12-14T16:09:38.926Z,32.97
2022-12-14T16:12:15.592Z,26.40
2022-12-14T16:14:50.742Z,30.43
2022-12-14T16:17:22.323Z,25.73
2022-12-14T16:20:00.026Z,25.10
2022-12-14T16:22:31.995Z,26.60
2022-12-14T16:25:01.818Z,26.13
2022-12-14T16:27:29.872Z,23.57
2022-12-14T16:30:17.487Z,22.93
2022-12-14T16:32:50.161Z,32.57
2022-12-14T16:35:21.330Z,27.83
2022-12-14T16:37:51.348Z,28.87
2022-12-14T16:40:39.620Z,22.67
2022-12-14T16:43:08.008Z,22.80
2022-12-14T16:45:44.156Z,21.97
2022-12-14T16:48:18.109Z,28.10
2022-12-14T16:51:07.909Z,24.10
2022-12-14T16:53:31.387Z,22.47
2022-12-14T16:56:04.073Z,26.13
2022-12-14T16:58:30.890Z,22.90
2022-12-14T17:01:03.583Z,22.73
2022-12-14T17:03:31.925Z,19.40
2022-12-14T17:06:01.003Z,21.30
2022-12-14T17:08:27.749Z,33.37
2022-12-14T17:10:54.951Z,24.03
2022-12-14T17:13:23.873Z,25.17
2022-12-14T17:16:00.103Z,20.50
2022-12-14T17:18:39.595Z,21.40
2022-12-14T17:21:07.627Z,20.80
2022-12-14T17:23:36.921Z,30.23
2022-12-14T17:26:03.944Z,21.20
2022-12-14T17:28:34.603Z,21.77
2022-12-14T17:31:02.743Z,22.67
2022-12-14T17:33:30.291Z,23.27
2022-12-14T17:35:57.204Z,28.73
2022-12-14T17:38:23.804Z,20.90
2022-12-14T17:40:50.915Z,30.03
2022-12-14T17:43:24.880Z,19.30
2022-12-14T17:45:51.453Z,22.70
2022-12-14T17:48:18.193Z,23.80
2022-12-14T17:50:47.248Z,27.50
2022-12-14T17:53:20.773Z,19.87
2022-12-14T17:55:47.358Z,23.53
2022-12-14T17:58:13.860Z,23.77
2022-12-14T18:00:59.473Z,25.00
2022-12-14T18:03:26.815Z,23.33
2022-12-14T18:05:54.103Z,24.03
2022-12-14T18:08:22.609Z,30.77
2022-12-14T18:10:56.784Z,28.33
2022-12-14T18:13:23.414Z,28.33
2022-12-14T18:15:51.664Z,27.93
2022-12-14T18:18:19.761Z,34.23
2022-12-14T18:20:53.114Z,27.77
2022-12-14T18:23:21.296Z,30.20
2022-12-14T18:25:56.282Z,28.57
2022-12-14T18:28:23.462Z,25.47
2022-12-14T18:30:53.488Z,33.80
2022-12-14T18:33:23.771Z,27.80
2022-12-14T18:35:51.020Z,31.03
2022-12-14T18:38:17.575Z,30.70
2022-12-14T18:40:49.638Z,38.33
2022-12-14T18:43:23.563Z,35.83
2022-12-14T18:45:53.915Z,41.77
2022-12-14T18:48:21.575Z,34.63
2022-12-14T18:50:49.925Z,38.90
2022-12-14T18:53:18.481Z,39.70
2022-12-14T18:55:45.004Z,34.73
2022-12-14T18:58:20.970Z,34.03
2022-12-14T19:00:48.792Z,35.40
2022-12-14T19:03:15.481Z,32.37
2022-12-14T19:05:42.246Z,31.40
2022-12-14T19:08:10.315Z,36.17
2022-12-14T19:10:39.680Z,33.60
2022-12-14T19:13:06.258Z,28.60
2022-12-14T19:15:34.670Z,33.73
2022-12-14T19:18:01.464Z,30.13
2022-12-14T19:20:29.273Z,32.97
2022-12-14T19:22:56.104Z,29.03
2022-12-14T19:25:23.536Z,33.53
2022-12-14T19:30:38.963Z,34.50
2022-12-14T19:33:05.545Z,28.60
2022-12-14T19:35:32.099Z,33.00
2022-12-14T19:37:58.686Z,36.17
2022-12-14T19:40:27.047Z,37.47
2022-12-14T19:42:55.840Z,36.17
2022-12-14T19:45:23.619Z,37.57
2022-12-14T19:47:50.368Z,35.23
2022-12-14T19:50:17.232Z,41.27
2022-12-14T19:52:44.053Z,38.77
2022-12-14T19:55:11.815Z,27.50
2022-12-14T19:57:42.653Z,32.73
2022-12-14T20:00:12.898Z,36.07
2022-12-14T20:02:39.894Z,37.20
2022-12-14T20:05:07.355Z,36.50
2022-12-14T20:07:37.397Z,35.53
2022-12-14T20:10:08.283Z,31.50
2022-12-14T20:12:35.199Z,34.50
2022-12-14T20:15:01.831Z,32.60
2022-12-14T20:17:28.386Z,28.57
2022-12-14T20:19:55.034Z,36.67
2022-12-14T20:22:23.780Z,39.27
2022-12-14T20:24:51.390Z,31.43
2022-12-14T20:27:19.924Z,36.53
2022-12-14T20:29:47.460Z,40.30
2022-12-14T20:32:14.282Z,37.80
2022-12-14T20:34:42.055Z,32.50
2022-12-14T20:37:08.707Z,38.63
2022-12-14T20:39:35.248Z,38.77
2022-12-14T20:42:01.757Z,32.43
2022-12-14T20:44:28.940Z,39.60
2022-12-14T20:46:55.479Z,32.70
2022-12-14T20:49:23.533Z,38.40
2022-12-14T20:51:50.047Z,36.23
2022-12-14T20:54:18.825Z,35.23
2022-12-14T20:56:49.729Z,35.83
2022-12-14T20:59:17.060Z,34.70
2022-12-14T21:01:44.172Z,37.87
2022-12-14T21:04:10.833Z,34.07
2022-12-14T21:06:39.641Z,35.20
2022-12-14T21:09:09.508Z,33.30
2022-12-14T21:11:56.105Z,38.67
2022-12-14T21:14:24.351Z,45.40
2022-12-14T21:16:50.918Z,50.83
2022-12-14T21:19:17.754Z,35.67
2022-12-14T21:21:49.699Z,40.33
2022-12-14T21:24:37.263Z,43.03
2022-12-14T21:27:08.084Z,40.57
2022-12-14T21:29:34.803Z,39.77
2022-12-14T21:32:01.537Z,46.23
2022-12-14T21:34:28.476Z,40.17
2022-12-14T21:36:54.995Z,44.43
2022-12-14T21:39:21.507Z,40.87
2022-12-14T21:42:06.820Z,35.07
2022-12-14T21:44:37.000Z,43.83
2022-12-14T21:47:05.783Z,34.33
2022-12-14T21:49:32.522Z,37.87
2022-12-14T21:51:59.087Z,42.40
2022-12-14T21:54:26.071Z,38.27
2022-12-14T21:57:11.032Z,34.10
2022-12-14T21:59:42.515Z,34.90
2022-12-14T22:02:18.985Z,31.27
2022-12-14T22:04:46.631Z,37.07
2022-12-14T22:07:18.376Z,34.53
2022-12-14T22:09:49.450Z,35.60
2022-12-14T22:12:17.346Z,34.77
2022-12-14T22:14:43.907Z,36.80
2022-12-14T22:17:11.426Z,36.10
2022-12-14T22:19:37.925Z,36.47
2022-12-14T22:22:05.151Z,38.43
2022-12-14T22:24:31.855Z,37.47
2022-12-14T22:26:59.383Z,35.83
2022-12-14T22:29:25.934Z,28.90
2022-12-14T22:31:52.577Z,32.57
2022-12-14T22:34:21.850Z,35.67
2022-12-14T22:36:49.995Z,31.23
2022-12-14T22:39:17.645Z,33.90
2022-12-14T22:41:44.600Z,32.03
2022-12-14T22:44:12.632Z,30.27
2022-12-14T22:46:40.222Z,32.20
2022-12-14T22:49:07.013Z,37.23
2022-12-14T22:51:33.528Z,35.57
2022-12-14T22:54:00.051Z,33.47
2022-12-14T22:56:31.320Z,39.03
2022-12-14T22:58:57.758Z,30.80
2022-12-14T23:01:24.643Z,33.97
2022-12-14T23:03:52.752Z,33.77
2022-12-14T23:06:20.115Z,34.33
2022-12-14T23:09:06.737Z,27.17
2022-12-14T23:11:52.923Z,33.37
2022-12-14T23:14:38.679Z,35.00
2022-12-14T23:17:24.760Z,29.97
2022-12-14T23:20:09.922Z,30.63
2022-12-14T23:22:54.965Z,28.20
2022-12-14T23:25:40.170Z,30.20
2022-12-14T23:28:25.378Z,30.13
2022-12-14T23:31:10.958Z,31.20
2022-12-14T23:33:56.157Z,32.87
2022-12-14T23:36:41.357Z,26.73
2022-12-14T23:39:26.455Z,31.50
2022-12-14T23:42:11.795Z,33.33
2022-12-14T23:44:57.162Z,30.10
2022-12-14T23:47:42.362Z,33.13
2022-12-14T23:50:27.444Z,33.23
2022-12-14T23:53:12.288Z,31.63
2022-12-14T23:55:57.549Z,29.17
2022-12-14T23:58:42.856Z,31.40
